Time;durP1;ratioP1;P1;durP2;ratioP2;P2;SDS_P1;SDS_P2;PMS_P1;PMS_P2;Temp;Humidity;BMP_temperature;BMP_pressure;BME280_temperature;BME280_humidity;BME280_pressure;Samples;Min_cycle;Max_cycle;Signal;HPM_P1;HPM_P2
2021/09/05 00:01:11;;;;;;;11.60;7.55;;;11.90;99.90;;;;;;4919978;29;20437;-96
2021/09/05 00:03:40;;;;;;;14.73;7.63;;;11.90;99.90;;;;;;4919120;29;20523;-96
2021/09/05 00:06:17;;;;;;;10.77;7.60;;;11.90;99.90;;;;;;4919731;29;20508;-96
2021/09/05 00:08:44;;;;;;;11.63;7.65;;;11.90;99.90;;;;;;4918611;29;20441;-96
2021/09/05 00:11:14;;;;;;;12.45;7.72;;;11.90;99.90;;;;;;4919007;29;20944;-95
2021/09/05 00:13:43;;;;;;;12.80;7.65;;;11.90;99.90;;;;;;4920077;29;20421;-96
2021/09/05 00:16:14;;;;;;;15.30;7.72;;;12.00;99.90;;;;;;4919598;29;20433;-96
2021/09/05 00:18:44;;;;;;;14.82;7.57;;;12.00;99.90;;;;;;4918978;29;20488;-95
2021/09/05 00:21:15;;;;;;;13.02;7.82;;;12.00;99.90;;;;;;4919360;29;20444;-96
2021/09/05 00:23:44;;;;;;;11.98;7.97;;;11.90;99.90;;;;;;4919402;29;20516;-96
2021/09/05 00:26:25;;;;;;;12.57;7.47;;;11.90;99.90;;;;;;4919145;29;20436;-96
2021/09/05 00:28:52;;;;;;;10.20;7.40;;;12.00;99.90;;;;;;4919146;29;20923;-96
2021/09/05 00:31:23;;;;;;;12.00;7.80;;;11.90;99.90;;;;;;4918422;29;20867;-96
2021/09/05 00:33:52;;;;;;;10.50;8.05;;;11.90;99.90;;;;;;4917838;29;20437;-96
2021/09/05 00:36:23;;;;;;;14.32;8.32;;;11.90;99.90;;;;;;4917791;29;20433;-95
2021/09/05 00:38:50;;;;;;;10.88;7.82;;;11.90;99.90;;;;;;4918476;29;20429;-96
2021/09/05 00:41:20;;;;;;;11.15;7.40;;;11.90;99.90;;;;;;4918046;29;20508;-96
2021/09/05 00:43:52;;;;;;;9.57;7.70;;;11.90;99.90;;;;;;4917678;29;20433;-96
2021/09/05 00:46:20;;;;;;;11.98;7.80;;;11.90;99.90;;;;;;4933734;29;20437;-96
2021/09/05 00:48:50;;;;;;;11.40;7.60;;;11.80;99.90;;;;;;4919213;29;20451;-95
2021/09/05 00:51:17;;;;;;;15.93;7.70;;;11.90;99.90;;;;;;4931187;29;20421;-96
2021/09/05 00:53:46;;;;;;;12.38;8.13;;;11.80;99.90;;;;;;4931272;29;20449;-96
2021/09/05 00:56:14;;;;;;;13.20;8.07;;;11.90;99.90;;;;;;4919717;29;20515;-96
2021/09/05 00:58:45;;;;;;;13.80;8.18;;;11.90;99.90;;;;;;4919204;29;20444;-96
2021/09/05 01:01:18;;;;;;;10.45;7.82;;;11.90;99.90;;;;;;4918912;29;20778;-96
2021/09/05 01:03:51;;;;;;;12.55;7.90;;;11.80;99.90;;;;;;4919267;29;20448;-96
2021/09/05 01:06:22;;;;;;;11.50;7.65;;;11.70;99.90;;;;;;4919398;29;20445;-96
2021/09/05 01:09:01;;;;;;;11.17;7.97;;;11.70;99.90;;;;;;4919364;29;20443;-95
2021/09/05 01:11:34;;;;;;;10.63;7.47;;;11.60;99.90;;;;;;4918011;29;20441;-95
2021/09/05 01:14:07;;;;;;;12.30;8.00;;;11.70;99.90;;;;;;4919108;29;20461;-96
2021/09/05 01:16:43;;;;;;;12.10;7.50;;;11.70;99.90;;;;;;4917726;29;20437;-95
2021/09/05 01:19:18;;;;;;;11.52;7.88;;;11.70;99.90;;;;;;4921875;29;20491;-96
2021/09/05 01:21:52;;;;;;;11.73;7.30;;;11.60;99.90;;;;;;4922079;29;20476;-96
2021/09/05 01:24:22;;;;;;;11.25;7.93;;;11.60;99.90;;;;;;4922618;29;20515;-96
2021/09/05 01:26:58;;;;;;;11.23;7.60;;;11.50;99.90;;;;;;4922631;29;20436;-95
2021/09/05 01:29:35;;;;;;;11.90;7.68;;;11.50;99.90;;;;;;4921765;29;20433;-96
2021/09/05 01:32:02;;;;;;;9.10;7.13;;;11.60;99.90;;;;;;4922047;29;20566;-96
2021/09/05 01:34:30;;;;;;;11.83;7.80;;;11.50;99.90;;;;;;4922165;29;20754;-96
2021/09/05 01:37:00;;;;;;;10.20;7.07;;;11.50;99.90;;;;;;4920889;29;20933;-95
2021/09/05 01:39:27;;;;;;;11.73;7.65;;;11.40;99.90;;;;;;4920947;29;20468;-96
2021/09/05 01:42:01;;;;;;;13.90;7.40;;;11.40;99.90;;;;;;4921716;29;20520;-95
2021/09/05 01:44:30;;;;;;;9.85;7.05;;;11.40;99.90;;;;;;4920807;29;20439;-95
2021/09/05 01:46:58;;;;;;;10.43;7.15;;;11.40;99.90;;;;;;4921304;29;20441;-96
2021/09/05 01:49:34;;;;;;;12.45;7.55;;;11.50;99.90;;;;;;4922622;29;20433;-96
2021/09/05 01:52:08;;;;;;;10.63;6.80;;;11.50;99.90;;;;;;4921585;29;20452;-96
2021/09/05 01:54:41;;;;;;;9.75;6.70;;;11.50;99.90;;;;;;4922061;29;20437;-96
2021/09/05 01:57:17;;;;;;;14.38;7.88;;;11.50;99.90;;;;;;4922935;29;20507;-96
2021/09/05 02:00:09;;;;;;;9.57;6.93;;;11.40;99.90;;;;;;4922112;29;20448;-96
2021/09/05 02:02:48;;;;;;;9.63;7.00;;;11.50;99.90;;;;;;4922148;29;20964;-96
2021/09/05 02:05:22;;;;;;;12.00;7.25;;;11.50;99.90;;;;;;4921973;29;20508;-96
2021/09/05 02:08:00;;;;;;;12.98;6.70;;;11.50;99.90;;;;;;4922292;29;20958;-96
2021/09/05 02:10:27;;;;;;;11.90;7.00;;;11.40;99.90;;;;;;4921995;29;20436;-96
2021/09/05 02:12:59;;;;;;;11.50;6.80;;;11.50;99.90;;;;;;4919811;29;20492;-96
2021/09/05 02:15:27;;;;;;;11.27;7.25;;;11.40;99.90;;;;;;4920126;29;20433;-96
2021/09/05 02:18:05;;;;;;;10.15;7.22;;;11.20;99.90;;;;;;4919944;29;20433;-95
2021/09/05 02:20:38;;;;;;;11.63;8.05;;;11.20;99.90;;;;;;4921162;29;20429;-96
2021/09/05 02:23:08;;;;;;;11.38;7.75;;;11.10;99.90;;;;;;4920578;29;20448;-96
2021/09/05 02:25:43;;;;;;;12.18;7.55;;;11.10;99.90;;;;;;4921946;29;20433;-96
2021/09/05 02:28:19;;;;;;;11.85;7.75;;;11.10;99.90;;;;;;4920244;29;20504;-96
2021/09/05 02:30:56;;;;;;;12.93;7.93;;;11.20;99.90;;;;;;4921182;29;20937;-96
2021/09/05 02:33:40;;;;;;;14.00;8.15;;;11.20;99.90;;;;;;4921634;29;20492;-96
2021/09/05 02:36:11;;;;;;;12.93;8.23;;;11.20;99.90;;;;;;4940777;29;20425;-96
2021/09/05 02:38:50;;;;;;;12.77;8.00;;;11.10;99.90;;;;;;4925413;29;20433;-95
2021/09/05 02:45:24;;;;;;;;;;;;;;;;;;;;;
2021/09/05 02:47:55;;;;;;;12.63;8.17;;;11.00;99.90;;;;;;4866805;29;20506;-96
2021/09/05 02:50:32;;;;;;;13.85;8.20;;;11.00;99.90;;;;;;4851337;29;20782;-96
2021/09/05 02:53:02;;;;;;;12.15;8.10;;;10.90;99.90;;;;;;4830872;29;20436;-96
2021/09/05 02:55:32;;;;;;;12.75;8.18;;;10.80;99.90;;;;;;4833080;29;20990;-96
2021/09/05 02:58:02;;;;;;;14.05;8.32;;;10.70;99.90;;;;;;4833610;29;20436;-96
2021/09/05 03:00:32;;;;;;;12.02;8.27;;;10.80;99.90;;;;;;4831074;29;20436;-96
2021/09/05 03:03:08;;;;;;;11.57;7.22;;;10.80;99.90;;;;;;4832232;29;20459;-96
2021/09/05 03:05:40;;;;;;;12.18;8.18;;;10.80;99.90;;;;;;4830212;29;20440;-95
2021/09/05 03:08:07;;;;;;;11.45;7.97;;;10.70;99.90;;;;;;4831079;29;20804;-96
2021/09/05 03:10:42;;;;;;;10.17;7.63;;;10.70;99.90;;;;;;4829276;29;20440;-96
2021/09/05 03:13:11;;;;;;;12.70;8.35;;;10.70;99.90;;;;;;4829596;29;20463;-96
2021/09/05 03:15:41;;;;;;;11.07;7.75;;;10.70;99.90;;;;;;4829938;29;20476;-96
2021/09/05 03:18:09;;;;;;;11.23;7.65;;;10.80;99.90;;;;;;4832087;29;20439;-95
2021/09/05 03:20:41;;;;;;;12.50;7.63;;;10.80;99.90;;;;;;4844009;29;20980;-96
2021/09/05 03:23:14;;;;;;;9.87;7.67;;;10.80;99.90;;;;;;4903776;29;20447;-96
2021/09/05 03:25:56;;;;;;;10.15;7.47;;;10.80;99.90;;;;;;4902098;29;20442;-96
2021/09/05 03:28:34;;;;;;;10.05;7.63;;;10.90;99.90;;;;;;4903168;29;20458;-96
2021/09/05 03:31:04;;;;;;;10.37;7.33;;;10.90;99.90;;;;;;4903183;29;20454;-95
2021/09/05 03:33:48;;;;;;;14.60;7.63;;;10.80;99.90;;;;;;4904148;29;20914;-96
2021/09/05 03:36:38;;;;;;;12.45;8.20;;;10.70;99.90;;;;;;4905228;29;20850;-96
2021/09/05 03:39:07;;;;;;;10.65;8.18;;;10.70;99.90;;;;;;4919720;29;20919;-96
2021/09/05 03:41:49;;;;;;;13.10;8.00;;;10.70;99.90;;;;;;4904838;29;20454;-96
2021/09/05 03:44:22;;;;;;;11.15;7.63;;;10.70;99.90;;;;;;4903584;29;20469;-96
2021/09/05 03:46:56;;;;;;;10.43;7.50;;;10.70;99.90;;;;;;4903348;29;20513;-96
2021/09/05 03:49:33;;;;;;;11.25;7.25;;;10.70;99.90;;;;;;4903434;29;20945;-96
2021/09/05 03:52:15;;;;;;;;;;;;;;;;;;;;;
2021/09/05 03:54:57;;;;;;;13.32;8.40;;;10.60;99.90;;;;;;4921749;29;20463;-96
2021/09/05 03:57:33;;;;;;;14.73;8.10;;;10.50;99.90;;;;;;4922228;29;20437;-96
2021/09/05 04:00:14;;;;;;;13.80;8.45;;;10.50;99.90;;;;;;4921274;29;20430;-96
2021/09/05 04:06:07;;;;;;;10.77;7.80;;;10.60;99.90;;;;;;4917533;29;20429;-96
2021/09/05 04:08:46;;;;;;;14.15;8.93;;;10.60;99.90;;;;;;4917736;29;20433;-96
2021/09/05 04:11:14;;;;;;;17.20;10.43;;;10.50;99.90;;;;;;4917942;29;20429;-95
2021/09/05 04:13:41;;;;;;;12.60;8.13;;;10.50;99.90;;;;;;4917100;29;20513;-96
2021/09/05 04:16:12;;;;;;;12.60;8.33;;;10.60;99.90;;;;;;4916658;29;20583;-96
2021/09/05 04:18:42;;;;;;;11.27;7.95;;;10.60;99.90;;;;;;4922930;29;20417;-96
2021/09/05 04:21:09;;;;;;;13.90;7.80;;;10.60;99.90;;;;;;4935561;29;20826;-96
2021/09/05 04:23:39;;;;;;;13.07;7.82;;;10.60;99.90;;;;;;4920169;29;20447;-96
2021/09/05 04:26:10;;;;;;;12.00;8.60;;;10.60;99.90;;;;;;4919148;29;20421;-96
2021/09/05 04:28:39;;;;;;;10.77;8.05;;;10.50;99.90;;;;;;4919591;29;20951;-96
2021/09/05 04:31:18;;;;;;;12.05;8.20;;;10.40;99.90;;;;;;4920926;29;20421;-96
2021/09/05 04:33:53;;;;;;;12.00;8.55;;;10.50;99.90;;;;;;4922884;29;20544;-96
2021/09/05 04:36:32;;;;;;;16.27;8.82;;;10.40;99.90;;;;;;4922703;29;20425;-96
2021/09/05 04:39:15;;;;;;;12.05;8.38;;;10.40;99.90;;;;;;4921734;29;20842;-96
2021/09/05 04:41:50;;;;;;;11.95;9.07;;;10.30;99.90;;;;;;4921876;29;20512;-96
2021/09/05 04:47:45;;;;;;;14.00;8.83;;;10.10;99.90;;;;;;4921645;29;20429;-96
2021/09/05 04:50:23;;;;;;;12.95;9.00;;;10.30;99.90;;;;;;4921483;29;20456;-96
2021/09/05 04:52:52;;;;;;;12.85;9.18;;;10.30;99.90;;;;;;4925502;29;20790;-96
2021/09/05 04:55:19;;;;;;;13.53;9.00;;;10.30;99.90;;;;;;4941615;29;20504;-96
2021/09/05 04:57:53;;;;;;;14.32;9.52;;;10.40;99.90;;;;;;4925875;29;20512;-96
2021/09/05 05:00:35;;;;;;;12.20;8.90;;;10.30;99.90;;;;;;4925468;29;20429;-96
2021/09/05 05:03:05;;;;;;;15.80;9.77;;;10.40;99.90;;;;;;4924693;29;20444;-96
2021/09/05 05:05:43;;;;;;;11.70;8.93;;;10.50;99.90;;;;;;4923667;29;20429;-96
2021/09/05 05:08:22;;;;;;;12.68;9.45;;;10.60;99.90;;;;;;4923071;29;20751;-96
2021/09/05 05:10:51;;;;;;;11.57;9.20;;;10.70;99.90;;;;;;4922309;29;20500;-96
2021/09/05 05:13:56;;;;;;;14.43;9.50;;;10.60;99.90;;;;;;4927800;29;20416;-96
2021/09/05 05:16:37;;;;;;;16.83;10.15;;;10.60;99.90;;;;;;4948633;29;20432;-96
2021/09/05 05:19:05;;;;;;;14.17;10.10;;;10.60;99.90;;;;;;4920995;29;20439;-96
2021/09/05 05:21:36;;;;;;;14.10;9.63;;;10.80;99.90;;;;;;4921086;29;20924;-95
2021/09/05 05:24:04;;;;;;;13.63;9.80;;;11.10;99.90;;;;;;4921515;29;20441;-94
2021/09/05 05:32:28;;;;;;;13.57;9.57;;;10.90;99.90;;;;;;5765439;23;20623;31
2021/09/05 05:38:33;;;;;;;13.27;9.23;;;11.30;99.90;;;;;;5377907;23;20465;-95
2021/09/05 05:41:00;;;;;;;13.68;9.25;;;11.40;99.90;;;;;;4946682;29;20781;-94
2021/09/05 05:43:27;;;;;;;15.40;9.23;;;11.50;99.90;;;;;;4942865;29;20437;-94
2021/09/05 05:45:54;;;;;;;14.73;9.40;;;11.60;99.90;;;;;;4944423;29;20422;-96
2021/09/05 05:48:22;;;;;;;15.52;9.77;;;11.60;99.90;;;;;;4946994;29;20425;-94
2021/09/05 05:50:51;;;;;;;14.70;9.95;;;11.70;99.90;;;;;;4942737;29;20426;-93
2021/09/05 05:53:22;;;;;;;17.40;9.87;;;11.70;99.90;;;;;;4942790;29;20446;-95
2021/09/05 05:55:49;;;;;;;13.10;9.43;;;11.80;99.90;;;;;;4944608;29;20430;-94
2021/09/05 05:58:16;;;;;;;19.70;9.77;;;11.90;99.90;;;;;;4942884;29;20504;-95
2021/09/05 06:01:03;;;;;;;14.83;9.90;;;12.00;99.90;;;;;;4945633;29;20413;-94
2021/09/05 06:03:30;;;;;;;14.18;10.13;;;11.90;99.90;;;;;;4952175;28;20432;-94
2021/09/05 06:05:58;;;;;;;14.07;9.90;;;12.00;99.90;;;;;;4955252;29;20430;-95
2021/09/05 06:08:27;;;;;;;15.03;9.93;;;12.00;99.90;;;;;;4943648;29;20939;-95
2021/09/05 06:10:54;;;;;;;13.85;10.07;;;12.10;99.90;;;;;;4941951;29;20436;-95
2021/09/05 06:13:21;;;;;;;14.80;9.73;;;12.10;99.90;;;;;;4946788;29;20432;-96
2021/09/05 06:15:48;;;;;;;12.25;9.50;;;12.10;99.90;;;;;;4946009;29;20504;-96
2021/09/05 06:18:15;;;;;;;13.50;9.98;;;12.30;99.90;;;;;;4942231;29;20455;-95
2021/09/05 06:20:44;;;;;;;15.02;9.52;;;12.30;99.90;;;;;;4944000;29;20909;-95
2021/09/05 06:23:30;;;;;;;12.75;9.77;;;12.30;99.90;;;;;;4947751;29;20591;-95
2021/09/05 06:26:09;;;;;;;12.48;9.35;;;12.50;99.90;;;;;;4932826;29;20498;-96
2021/09/05 06:29:39;;;;;;;11.63;8.30;;;13.10;99.90;;;;;;4999278;23;20453;-96
2021/09/05 06:38:11;;;;;;;10.10;7.10;;;16.10;99.90;;;;;;5766068;23;20442;-96
2021/09/05 06:40:42;;;;;;;13.37;7.50;;;16.80;99.90;;;;;;5003961;23;20422;-95
2021/09/05 06:43:16;;;;;;;9.02;6.75;;;17.00;99.90;;;;;;4950380;29;20441;-96
2021/09/05 06:55:29;;;;;;;14.13;7.20;;;17.10;99.90;;;;;;4935653;29;20461;-96
2021/09/05 07:49:48;;;;;;;13.88;7.53;;;17.90;99.90;;;;;;4943200;23;20503;-96
2021/09/05 07:56:15;;;;;;;12.02;6.97;;;17.90;99.90;;;;;;5169675;23;20417;-96
2021/09/05 08:18:36;;;;;;;10.77;6.88;;;18.70;99.90;;;;;;5017700;23;20436;31
2021/09/05 08:31:23;;;;;;;10.90;6.50;;;18.80;99.90;;;;;;5579299;23;20637;31
2021/09/05 08:38:22;;;;;;;;;;;;;;;;;;;;;
2021/09/05 08:44:48;;;;;;;12.80;6.70;;;19.00;99.90;;;;;;5766344;23;20396;31
2021/09/05 08:57:14;;;;;;;10.73;6.13;;;19.20;99.90;;;;;;5133965;23;20837;-96
2021/09/05 09:03:28;;;;;;;9.77;6.20;;;19.50;99.90;;;;;;4996115;23;20476;-96
2021/09/05 09:15:50;;;;;;;8.63;6.38;;;19.90;99.90;;;;;;5110655;23;20473;-96
2021/09/05 09:18:32;;;;;;;8.60;6.10;;;20.80;99.90;;;;;;5009192;23;20465;-96
2021/09/05 09:21:18;;;;;;;9.27;6.20;;;21.10;99.90;;;;;;4941517;23;20522;-96
2021/09/05 09:24:56;;;;;;;8.20;6.07;;;21.40;99.90;;;;;;4932851;29;20490;-96
2021/09/05 09:30:48;;;;;;;10.63;6.32;;;21.40;99.90;;;;;;5569271;23;20434;-96
2021/09/05 09:33:23;;;;;;;8.43;6.43;;;21.30;99.00;;;;;;4955675;28;20437;-96
2021/09/05 09:39:12;;;;;;;10.38;6.40;;;20.90;99.90;;;;;;5073481;23;20486;-96
2021/09/05 09:41:46;;;;;;;9.75;6.40;;;20.80;99.90;;;;;;4954772;29;20409;-96
2021/09/05 09:44:27;;;;;;;8.65;6.43;;;21.00;99.90;;;;;;4951622;28;20449;-95
2021/09/05 09:47:15;;;;;;;8.50;6.22;;;21.00;99.90;;;;;;4968368;23;20508;-96
2021/09/05 09:49:54;;;;;;;8.57;6.40;;;20.90;99.50;;;;;;4951830;29;20524;-96
2021/09/05 09:55:28;;;;;;;8.20;6.38;;;20.90;99.90;;;;;;4932145;29;20485;-96
2021/09/05 09:58:45;;;;;;;11.15;6.13;;;20.90;99.90;;;;;;5192347;23;20537;-96
2021/09/05 10:01:15;;;;;;;11.20;6.03;;;20.70;98.40;;;;;;4947041;29;20447;-96
2021/09/05 10:04:03;;;;;;;8.88;5.95;;;20.60;98.40;;;;;;4954674;23;20463;-95
2021/09/05 10:06:36;;;;;;;9.33;6.40;;;20.80;99.90;;;;;;4968419;23;20542;-96
2021/09/05 10:09:19;;;;;;;9.25;6.25;;;21.20;99.90;;;;;;4970295;23;20467;-95
2021/09/05 10:16:13;;;;;;;8.85;5.72;;;21.10;98.10;;;;;;5814406;23;20510;-96
2021/09/05 10:19:07;;;;;;;10.05;6.72;;;20.90;97.10;;;;;;5016224;23;20514;-96
2021/09/05 10:25:25;;;;;;;11.57;6.07;;;20.80;97.90;;;;;;5319518;23;20450;-96
2021/09/05 10:38:25;;;;;;;7.93;5.65;;;21.10;96.40;;;;;;5240632;23;20524;-96
2021/09/05 10:44:06;;;;;;;8.63;5.97;;;21.40;96.20;;;;;;4968216;28;20529;-96
2021/09/05 10:46:48;;;;;;;12.48;6.47;;;21.30;97.60;;;;;;4925294;23;20571;-96
2021/09/05 10:49:41;;;;;;;11.27;5.68;;;21.60;99.90;;;;;;5095780;23;20447;-96
2021/09/05 10:52:55;;;;;;;18.17;12.45;;;21.60;96.90;;;;;;4942012;29;20447;-96
2021/09/05 10:56:25;;;;;;;9.05;6.03;;;21.80;98.00;;;;;;4963833;23;20442;-96
2021/09/05 11:09:41;;;;;;;8.18;5.72;;;21.90;99.20;;;;;;4993230;23;20415;-96
2021/09/05 11:12:46;;;;;;;11.00;6.30;;;21.80;99.90;;;;;;5230964;23;20450;-96
2021/09/05 11:15:36;;;;;;;9.00;5.63;;;21.60;99.90;;;;;;4961612;23;20440;-96
2021/09/05 11:20:47;;;;;;;7.83;6.00;;;21.60;98.50;;;;;;5556299;23;20441;-96
2021/09/05 11:23:55;;;;;;;11.27;5.80;;;21.70;99.60;;;;;;4952375;29;20450;-96
2021/09/05 11:27:00;;;;;;;9.90;6.30;;;21.40;98.50;;;;;;4991958;23;20416;-96
2021/09/05 11:29:44;;;;;;;8.52;5.32;;;21.30;99.90;;;;;;5071993;23;20475;-96
2021/09/05 11:32:40;;;;;;;8.20;5.90;;;21.60;98.80;;;;;;4958866;23;20444;-96
2021/09/05 11:37:47;;;;;;;10.97;6.23;;;21.20;99.90;;;;;;5200451;23;20437;-96
2021/09/05 11:40:19;;;;;;;9.27;6.20;;;21.20;99.90;;;;;;4959223;23;20437;-96
2021/09/05 11:43:05;;;;;;;8.57;5.80;;;21.40;97.90;;;;;;5231133;23;20481;31
2021/09/05 11:45:47;;;;;;;8.52;5.68;;;21.60;98.90;;;;;;4957040;23;20424;-96
2021/09/05 11:48:26;;;;;;;9.68;5.65;;;21.60;98.50;;;;;;4964828;23;20558;-96
2021/09/05 11:51:29;;;;;;;11.52;5.63;;;21.40;99.90;;;;;;4963647;23;20769;-95
2021/09/05 11:54:52;;;;;;;9.30;5.80;;;21.20;99.90;;;;;;4945707;29;20431;-96
2021/09/05 12:00:23;;;;;;;10.03;5.90;;;20.80;99.90;;;;;;4972824;23;20504;-96
2021/09/05 12:21:36;;;;;;;9.30;5.53;;;23.60;96.30;;;;;;5719959;23;20431;-95
2021/09/05 12:27:42;;;;;;;7.57;5.22;;;25.00;95.70;;;;;;4961190;23;20429;-96
2021/09/05 12:34:46;;;;;;;9.57;5.20;;;25.40;94.70;;;;;;4836314;29;20463;-96
2021/09/05 12:41:46;;;;;;;9.35;5.43;;;25.60;90.20;;;;;;4946286;29;20426;-96
2021/09/05 12:45:25;;;;;;;;;;;;;;;;;;;;;
2021/09/05 12:48:23;;;;;;;9.25;5.45;;;26.50;90.40;;;;;;4973409;23;20466;-96
2021/09/05 13:00:40;;;;;;;9.80;5.55;;;27.30;90.60;;;;;;1130069;23;22033;31
2021/09/05 13:04:21;;;;;;;10.40;5.25;;;28.00;87.00;;;;;;4909434;29;20502;-96
2021/09/05 13:10:53;;;;;;;8.05;5.25;;;28.20;83.80;;;;;;4899217;23;20504;-96
2021/09/05 13:13:33;;;;;;;10.00;5.00;;;28.20;82.20;;;;;;4963131;23;20438;-96
2021/09/05 13:16:16;;;;;;;8.75;5.22;;;27.80;80.00;;;;;;4927577;29;20414;-95
2021/09/05 13:19:29;;;;;;;7.35;5.22;;;27.60;80.30;;;;;;4975662;23;20923;-96
2021/09/05 13:22:23;;;;;;;6.50;5.05;;;27.80;84.00;;;;;;5164194;23;20439;-95
2021/09/05 13:25:02;;;;;;;9.77;5.07;;;28.00;79.80;;;;;;4946847;29;20523;-96
2021/09/05 13:27:56;;;;;;;7.43;5.33;;;27.40;79.30;;;;;;4954977;29;20497;-96
2021/09/05 13:33:48;;;;;;;9.05;5.50;;;26.60;80.60;;;;;;4945023;29;20435;-95
2021/09/05 13:36:19;;;;;;;7.07;5.68;;;25.60;82.80;;;;;;4945656;29;20427;-95
2021/09/05 13:38:49;;;;;;;9.80;5.70;;;24.70;81.10;;;;;;4944471;29;20441;-95
2021/09/05 13:41:18;;;;;;;7.80;5.70;;;23.70;88.80;;;;;;4943582;29;20442;-96
2021/09/05 13:43:55;;;;;;;7.60;5.82;;;23.00;88.60;;;;;;4948521;29;20448;-95
2021/09/05 13:46:27;;;;;;;9.87;6.07;;;22.20;90.50;;;;;;4946700;29;20432;-96
2021/09/05 13:48:54;;;;;;;8.60;6.00;;;21.70;95.10;;;;;;4944354;29;20795;-95
2021/09/05 13:51:22;;;;;;;8.65;5.80;;;21.40;94.40;;;;;;4945227;29;20415;-95
2021/09/05 13:53:54;;;;;;;7.50;5.97;;;22.20;95.60;;;;;;5018020;23;20470;-96
2021/09/05 13:56:24;;;;;;;8.27;5.68;;;23.60;94.60;;;;;;4929216;29;20497;-96
2021/09/05 13:58:59;;;;;;;7.83;5.50;;;24.70;85.00;;;;;;4930859;29;20443;-95
2021/09/05 14:01:46;;;;;;;7.90;5.63;;;25.30;83.00;;;;;;4927642;29;20923;-96
2021/09/05 14:04:34;;;;;;;7.50;5.45;;;25.60;80.70;;;;;;4928115;29;20471;-96
2021/09/05 14:07:13;;;;;;;8.43;5.35;;;26.20;82.00;;;;;;4929330;29;20514;-95
2021/09/05 14:12:24;;;;;;;8.88;5.47;;;27.90;79.40;;;;;;4997093;23;20416;-95
2021/09/05 14:15:24;;;;;;;8.68;5.40;;;28.20;83.60;;;;;;5009416;23;20435;-96
2021/09/05 14:18:12;;;;;;;21.70;6.20;;;27.90;77.10;;;;;;4970492;23;20435;-95
2021/09/05 14:21:06;;;;;;;10.30;5.20;;;26.70;82.50;;;;;;4938048;23;20489;-95
2021/09/05 14:23:59;;;;;;;;;;;;;;;;;;;;;
2021/09/05 14:27:01;;;;;;;9.35;5.88;;;24.40;89.90;;;;;;4964866;23;20434;-95
2021/09/05 14:54:33;;;;;;;10.23;6.37;;;19.80;99.90;;;;;;4975213;23;20443;-95
2021/09/05 15:03:27;;;;;;;9.25;6.25;;;19.20;99.90;;;;;;4871867;29;20437;-96
2021/09/05 15:11:45;;;;;;;7.68;5.70;;;19.00;99.90;;;;;;4940137;29;20530;-95
2021/09/05 15:14:30;;;;;;;11.35;6.13;;;19.80;99.90;;;;;;4947823;23;20441;-96
2021/09/05 15:17:20;;;;;;;9.18;5.53;;;20.90;99.90;;;;;;4959790;28;20442;-96
2021/09/05 15:19:57;;;;;;;9.77;5.90;;;21.90;99.50;;;;;;4944524;29;20455;-96
2021/09/05 15:22:48;;;;;;;9.68;6.18;;;21.90;97.20;;;;;;4943364;29;20431;-96
2021/09/05 15:25:21;;;;;;;10.30;5.88;;;21.70;99.00;;;;;;4946859;29;20444;-95
2021/09/05 15:34:32;;;;;;;8.43;6.18;;;21.20;99.90;;;;;;4993159;23;20497;-96
2021/09/05 15:54:17;;;;;;;;;;;;;;;;;;;;;
2021/09/05 16:00:08;;;;;;;7.22;5.70;;;22.40;96.00;;;;;;5170730;23;20426;-96
2021/09/05 16:21:51;;;;;;;8.75;5.60;;;23.80;93.00;;;;;;4970057;23;20411;-96
2021/09/05 16:25:00;;;;;;;9.55;5.70;;;23.60;92.40;;;;;;4931230;29;20431;-96
2021/09/05 16:28:06;;;;;;;8.77;5.75;;;23.40;93.30;;;;;;5035992;23;21160;-96
2021/09/05 16:38:16;;;;;;;;;;;;;;;;;;;;;
2021/09/05 16:41:38;;;;;;;10.05;6.28;;;22.50;93.00;;;;;;4910535;29;20422;-95
2021/09/05 16:48:07;;;;;;;7.65;5.70;;;21.50;94.10;;;;;;5172659;23;20429;-96
2021/09/05 17:08:33;;;;;;;9.87;7.30;;;18.00;99.80;;;;;;5478389;23;20547;31
2021/09/05 17:11:54;;;;;;;10.93;7.10;;;17.50;99.90;;;;;;4970443;23;20810;-96
2021/09/05 19:03:57;;;;;;;;;;;;;;;;;;;;;
2021/09/05 19:19:58;;;;;;;;;;;;;;;;;;;;;
2021/09/05 20:05:36;;;;;;;14.03;9.90;;;13.10;99.90;;;;;;5629686;23;20442;-96
2021/09/05 20:08:56;;;;;;;14.50;10.32;;;13.10;99.90;;;;;;4963061;29;20456;-96
2021/09/05 20:26:28;;;;;;;16.65;11.15;;;12.80;99.90;;;;;;5460276;23;20433;-96
2021/09/05 21:16:38;;;;;;;18.58;12.85;;;12.90;99.90;;;;;;4894227;29;20484;-96
2021/09/05 22:39:22;;;;;;;;;;;;;;;;;;;;;
